sensor_id;sensor_type;location;lat;lon;timestamp;P1;durP1;ratioP1;P2;durP2;ratioP2
21671;SDS011;10997;52.242;8.168;2022-09-09T00:05:12;5.55;;;1.90;;
21671;SDS011;10997;52.242;8.168;2022-09-09T00:10:22;4.75;;;2.00;;
21671;SDS011;10997;52.242;8.168;2022-09-09T00:20:33;5.55;;;2.30;;
21671;SDS011;10997;52.242;8.168;2022-09-09T00:31:15;6.47;;;1.98;;
21671;SDS011;10997;52.242;8.168;2022-09-09T00:36:21;5.43;;;2.03;;
21671;SDS011;10997;52.242;8.168;2022-09-09T00:42:00;5.07;;;1.98;;
21671;SDS011;10997;52.242;8.168;2022-09-09T00:57:29;4.63;;;2.33;;
21671;SDS011;10997;52.242;8.168;2022-09-09T01:02:47;8.90;;;2.50;;
21671;SDS011;10997;52.242;8.168;2022-09-09T01:08:10;7.82;;;2.60;;
21671;SDS011;10997;52.242;8.168;2022-09-09T01:13:34;6.63;;;2.50;;
21671;SDS011;10997;52.242;8.168;2022-09-09T01:18:37;5.80;;;2.63;;
21671;SDS011;10997;52.242;8.168;2022-09-09T01:28:50;6.90;;;2.75;;
21671;SDS011;10997;52.242;8.168;2022-09-09T01:33:54;5.93;;;2.15;;
21671;SDS011;10997;52.242;8.168;2022-09-09T01:38:55;6.00;;;2.33;;
21671;SDS011;10997;52.242;8.168;2022-09-09T01:43:56;6.28;;;2.45;;
21671;SDS011;10997;52.242;8.168;2022-09-09T01:48:57;7.55;;;2.50;;
21671;SDS011;10997;52.242;8.168;2022-09-09T01:54:01;4.72;;;2.40;;
21671;SDS011;10997;52.242;8.168;2022-09-09T02:04:09;4.20;;;2.40;;
21671;SDS011;10997;52.242;8.168;2022-09-09T02:09:44;4.13;;;2.15;;
21671;SDS011;10997;52.242;8.168;2022-09-09T02:19:57;4.68;;;2.83;;
21671;SDS011;10997;52.242;8.168;2022-09-09T02:25:06;5.70;;;3.10;;
21671;SDS011;10997;52.242;8.168;2022-09-09T02:30:09;6.55;;;3.30;;
21671;SDS011;10997;52.242;8.168;2022-09-09T02:35:11;6.15;;;2.95;;
21671;SDS011;10997;52.242;8.168;2022-09-09T02:40:14;5.72;;;2.85;;
21671;SDS011;10997;52.242;8.168;2022-09-09T02:45:19;5.43;;;2.55;;
21671;SDS011;10997;52.242;8.168;2022-09-09T02:50:24;6.25;;;2.60;;
21671;SDS011;10997;52.242;8.168;2022-09-09T02:55:35;5.68;;;2.63;;
21671;SDS011;10997;52.242;8.168;2022-09-09T03:00:50;4.45;;;2.35;;
21671;SDS011;10997;52.242;8.168;2022-09-09T03:05:51;6.95;;;3.00;;
21671;SDS011;10997;52.242;8.168;2022-09-09T03:10:52;6.13;;;3.10;;
21671;SDS011;10997;52.242;8.168;2022-09-09T03:15:54;7.85;;;3.38;;
21671;SDS011;10997;52.242;8.168;2022-09-09T03:20:55;7.40;;;3.67;;
21671;SDS011;10997;52.242;8.168;2022-09-09T03:25:57;7.00;;;3.58;;
21671;SDS011;10997;52.242;8.168;2022-09-09T03:31:09;7.65;;;3.53;;
21671;SDS011;10997;52.242;8.168;2022-09-09T03:36:10;6.18;;;3.65;;
21671;SDS011;10997;52.242;8.168;2022-09-09T03:41:11;5.45;;;3.42;;
21671;SDS011;10997;52.242;8.168;2022-09-09T03:46:12;7.35;;;4.43;;
21671;SDS011;10997;52.242;8.168;2022-09-09T03:51:13;6.72;;;3.75;;
21671;SDS011;10997;52.242;8.168;2022-09-09T03:56:15;8.68;;;4.03;;
21671;SDS011;10997;52.242;8.168;2022-09-09T04:01:16;6.55;;;3.60;;
21671;SDS011;10997;52.242;8.168;2022-09-09T04:06:17;5.28;;;3.67;;
21671;SDS011;10997;52.242;8.168;2022-09-09T04:11:20;5.95;;;3.80;;
21671;SDS011;10997;52.242;8.168;2022-09-09T04:16:20;7.68;;;4.65;;
21671;SDS011;10997;52.242;8.168;2022-09-09T04:21:21;6.50;;;4.75;;
21671;SDS011;10997;52.242;8.168;2022-09-09T04:26:23;7.68;;;3.95;;
21671;SDS011;10997;52.242;8.168;2022-09-09T04:31:23;5.45;;;3.50;;
21671;SDS011;10997;52.242;8.168;2022-09-09T04:36:24;5.72;;;3.40;;
21671;SDS011;10997;52.242;8.168;2022-09-09T04:41:25;6.28;;;3.70;;
21671;SDS011;10997;52.242;8.168;2022-09-09T04:46:26;5.55;;;3.70;;
21671;SDS011;10997;52.242;8.168;2022-09-09T04:51:27;9.27;;;3.80;;
21671;SDS011;10997;52.242;8.168;2022-09-09T04:56:28;8.20;;;3.63;;
21671;SDS011;10997;52.242;8.168;2022-09-09T05:01:29;8.52;;;3.38;;
21671;SDS011;10997;52.242;8.168;2022-09-09T05:06:29;7.35;;;3.80;;
21671;SDS011;10997;52.242;8.168;2022-09-09T05:11:32;8.00;;;3.33;;
21671;SDS011;10997;52.242;8.168;2022-09-09T05:16:36;7.50;;;3.10;;
21671;SDS011;10997;52.242;8.168;2022-09-09T05:21:36;7.95;;;3.22;;
21671;SDS011;10997;52.242;8.168;2022-09-09T05:26:37;5.43;;;2.90;;
21671;SDS011;10997;52.242;8.168;2022-09-09T05:31:37;7.00;;;2.72;;
21671;SDS011;10997;52.242;8.168;2022-09-09T05:36:39;8.48;;;2.47;;
21671;SDS011;10997;52.242;8.168;2022-09-09T05:41:40;5.45;;;2.28;;
21671;SDS011;10997;52.242;8.168;2022-09-09T05:46:40;7.25;;;2.50;;
21671;SDS011;10997;52.242;8.168;2022-09-09T05:51:41;5.57;;;2.20;;
21671;SDS011;10997;52.242;8.168;2022-09-09T05:56:43;4.90;;;2.28;;
21671;SDS011;10997;52.242;8.168;2022-09-09T06:01:44;6.43;;;2.08;;
21671;SDS011;10997;52.242;8.168;2022-09-09T06:06:45;5.38;;;1.88;;
21671;SDS011;10997;52.242;8.168;2022-09-09T06:11:46;5.72;;;2.08;;
21671;SDS011;10997;52.242;8.168;2022-09-09T06:16:46;7.75;;;1.85;;
21671;SDS011;10997;52.242;8.168;2022-09-09T06:21:47;10.65;;;2.17;;
21671;SDS011;10997;52.242;8.168;2022-09-09T06:26:49;4.32;;;1.63;;
21671;SDS011;10997;52.242;8.168;2022-09-09T06:31:49;8.90;;;1.98;;
21671;SDS011;10997;52.242;8.168;2022-09-09T06:36:50;4.40;;;2.13;;
21671;SDS011;10997;52.242;8.168;2022-09-09T06:41:51;6.50;;;1.92;;
21671;SDS011;10997;52.242;8.168;2022-09-09T06:46:53;7.53;;;2.10;;
21671;SDS011;10997;52.242;8.168;2022-09-09T06:51:53;6.25;;;2.00;;
21671;SDS011;10997;52.242;8.168;2022-09-09T06:56:54;4.35;;;1.70;;
21671;SDS011;10997;52.242;8.168;2022-09-09T07:01:55;5.70;;;1.88;;
21671;SDS011;10997;52.242;8.168;2022-09-09T07:06:56;6.70;;;1.98;;
21671;SDS011;10997;52.242;8.168;2022-09-09T07:11:58;7.38;;;2.33;;
21671;SDS011;10997;52.242;8.168;2022-09-09T07:16:59;6.07;;;2.13;;
21671;SDS011;10997;52.242;8.168;2022-09-09T07:22:00;6.57;;;2.15;;
21671;SDS011;10997;52.242;8.168;2022-09-09T07:27:02;6.78;;;2.35;;
21671;SDS011;10997;52.242;8.168;2022-09-09T07:32:03;5.55;;;2.25;;
21671;SDS011;10997;52.242;8.168;2022-09-09T07:37:04;7.85;;;2.15;;
21671;SDS011;10997;52.242;8.168;2022-09-09T07:42:05;6.78;;;2.25;;
21671;SDS011;10997;52.242;8.168;2022-09-09T07:47:06;6.88;;;2.08;;
21671;SDS011;10997;52.242;8.168;2022-09-09T07:52:07;8.75;;;2.47;;
21671;SDS011;10997;52.242;8.168;2022-09-09T07:57:08;6.47;;;1.92;;
21671;SDS011;10997;52.242;8.168;2022-09-09T08:02:09;8.18;;;2.17;;
21671;SDS011;10997;52.242;8.168;2022-09-09T08:07:09;7.38;;;1.95;;
21671;SDS011;10997;52.242;8.168;2022-09-09T08:12:10;11.15;;;2.17;;
21671;SDS011;10997;52.242;8.168;2022-09-09T08:17:13;7.10;;;1.90;;
21671;SDS011;10997;52.242;8.168;2022-09-09T08:22:13;9.45;;;2.40;;
21671;SDS011;10997;52.242;8.168;2022-09-09T08:27:14;7.68;;;2.15;;
21671;SDS011;10997;52.242;8.168;2022-09-09T08:32:15;5.15;;;1.98;;
21671;SDS011;10997;52.242;8.168;2022-09-09T08:37:16;8.68;;;1.98;;
21671;SDS011;10997;52.242;8.168;2022-09-09T08:42:21;8.48;;;2.35;;
21671;SDS011;10997;52.242;8.168;2022-09-09T08:58:19;8.50;;;2.40;;
21671;SDS011;10997;52.242;8.168;2022-09-09T09:19:13;7.95;;;2.42;;
21671;SDS011;10997;52.242;8.168;2022-09-09T09:24:36;7.32;;;1.98;;
21671;SDS011;10997;52.242;8.168;2022-09-09T09:29:52;8.23;;;2.10;;
21671;SDS011;10997;52.242;8.168;2022-09-09T09:34:57;9.73;;;2.78;;
21671;SDS011;10997;52.242;8.168;2022-09-09T09:40:08;8.77;;;2.28;;
21671;SDS011;10997;52.242;8.168;2022-09-09T09:45:20;11.23;;;2.33;;
21671;SDS011;10997;52.242;8.168;2022-09-09T09:50:34;4.18;;;1.75;;
21671;SDS011;10997;52.242;8.168;2022-09-09T09:55:35;5.97;;;1.88;;
21671;SDS011;10997;52.242;8.168;2022-09-09T10:00:50;10.73;;;2.80;;
21671;SDS011;10997;52.242;8.168;2022-09-09T10:05:52;8.45;;;2.90;;
21671;SDS011;10997;52.242;8.168;2022-09-09T10:26:56;7.65;;;2.97;;
21671;SDS011;10997;52.242;8.168;2022-09-09T10:43:06;7.07;;;2.47;;
21671;SDS011;10997;52.242;8.168;2022-09-09T10:59:26;6.55;;;1.67;;
21671;SDS011;10997;52.242;8.168;2022-09-09T11:09:42;5.78;;;1.52;;
21671;SDS011;10997;52.242;8.168;2022-09-09T11:15:13;8.15;;;1.75;;
21671;SDS011;10997;52.242;8.168;2022-09-09T11:20:19;8.68;;;1.92;;
21671;SDS011;10997;52.242;8.168;2022-09-09T11:41:40;6.53;;;2.17;;
21671;SDS011;10997;52.242;8.168;2022-09-09T11:46:41;7.50;;;2.20;;
21671;SDS011;10997;52.242;8.168;2022-09-09T11:51:42;5.90;;;2.28;;
21671;SDS011;10997;52.242;8.168;2022-09-09T11:56:43;4.40;;;1.98;;
21671;SDS011;10997;52.242;8.168;2022-09-09T12:01:45;6.97;;;2.15;;
21671;SDS011;10997;52.242;8.168;2022-09-09T12:11:52;12.82;;;3.22;;
21671;SDS011;10997;52.242;8.168;2022-09-09T12:17:24;10.13;;;2.72;;
21671;SDS011;10997;52.242;8.168;2022-09-09T12:28:15;10.52;;;3.83;;
21671;SDS011;10997;52.242;8.168;2022-09-09T12:33:17;8.43;;;4.38;;
21671;SDS011;10997;52.242;8.168;2022-09-09T12:38:25;10.43;;;4.72;;
21671;SDS011;10997;52.242;8.168;2022-09-09T12:43:38;12.73;;;4.45;;
21671;SDS011;10997;52.242;8.168;2022-09-09T12:48:39;7.20;;;4.03;;
21671;SDS011;10997;52.242;8.168;2022-09-09T12:53:44;11.32;;;4.10;;
21671;SDS011;10997;52.242;8.168;2022-09-09T12:58:46;5.85;;;3.58;;
21671;SDS011;10997;52.242;8.168;2022-09-09T13:03:49;6.78;;;3.40;;
21671;SDS011;10997;52.242;8.168;2022-09-09T13:08:50;6.90;;;3.20;;
21671;SDS011;10997;52.242;8.168;2022-09-09T13:13:53;5.50;;;2.70;;
21671;SDS011;10997;52.242;8.168;2022-09-09T13:18:55;6.85;;;2.53;;
21671;SDS011;10997;52.242;8.168;2022-09-09T13:23:56;8.85;;;2.75;;
21671;SDS011;10997;52.242;8.168;2022-09-09T13:29:20;7.30;;;3.00;;
21671;SDS011;10997;52.242;8.168;2022-09-09T13:34:30;7.00;;;2.97;;
21671;SDS011;10997;52.242;8.168;2022-09-09T13:39:38;5.90;;;2.65;;
21671;SDS011;10997;52.242;8.168;2022-09-09T13:44:39;5.43;;;2.70;;
21671;SDS011;10997;52.242;8.168;2022-09-09T13:49:41;5.88;;;2.38;;
21671;SDS011;10997;52.242;8.168;2022-09-09T13:54:42;4.55;;;2.05;;
21671;SDS011;10997;52.242;8.168;2022-09-09T13:59:47;4.63;;;2.03;;
21671;SDS011;10997;52.242;8.168;2022-09-09T14:04:48;6.18;;;1.80;;
21671;SDS011;10997;52.242;8.168;2022-09-09T14:09:50;4.95;;;1.58;;
21671;SDS011;10997;52.242;8.168;2022-09-09T14:14:53;3.17;;;1.30;;
21671;SDS011;10997;52.242;8.168;2022-09-09T14:19:54;3.95;;;1.30;;
21671;SDS011;10997;52.242;8.168;2022-09-09T14:24:56;3.35;;;1.50;;
21671;SDS011;10997;52.242;8.168;2022-09-09T14:29:57;4.18;;;1.50;;
21671;SDS011;10997;52.242;8.168;2022-09-09T14:35:00;2.67;;;1.70;;
21671;SDS011;10997;52.242;8.168;2022-09-09T14:40:00;5.28;;;1.83;;
21671;SDS011;10997;52.242;8.168;2022-09-09T14:45:01;5.75;;;1.48;;
21671;SDS011;10997;52.242;8.168;2022-09-09T14:50:02;6.50;;;1.98;;
21671;SDS011;10997;52.242;8.168;2022-09-09T14:55:05;4.22;;;2.22;;
21671;SDS011;10997;52.242;8.168;2022-09-09T15:00:06;5.13;;;2.63;;
21671;SDS011;10997;52.242;8.168;2022-09-09T15:05:08;5.50;;;2.28;;
21671;SDS011;10997;52.242;8.168;2022-09-09T15:10:09;5.28;;;2.35;;
21671;SDS011;10997;52.242;8.168;2022-09-09T15:15:10;5.90;;;2.47;;
21671;SDS011;10997;52.242;8.168;2022-09-09T15:20:12;6.72;;;2.20;;
21671;SDS011;10997;52.242;8.168;2022-09-09T15:25:13;5.53;;;2.05;;
21671;SDS011;10997;52.242;8.168;2022-09-09T15:30:14;5.03;;;2.45;;
21671;SDS011;10997;52.242;8.168;2022-09-09T15:35:14;7.43;;;2.40;;
21671;SDS011;10997;52.242;8.168;2022-09-09T15:40:15;6.90;;;2.63;;
21671;SDS011;10997;52.242;8.168;2022-09-09T15:45:16;9.80;;;2.17;;
21671;SDS011;10997;52.242;8.168;2022-09-09T15:50:16;5.60;;;1.60;;
21671;SDS011;10997;52.242;8.168;2022-09-09T15:55:19;8.30;;;1.85;;
21671;SDS011;10997;52.242;8.168;2022-09-09T16:00:24;4.45;;;1.40;;
21671;SDS011;10997;52.242;8.168;2022-09-09T16:05:25;4.65;;;1.60;;
21671;SDS011;10997;52.242;8.168;2022-09-09T16:10:25;2.60;;;1.48;;
21671;SDS011;10997;52.242;8.168;2022-09-09T16:15:26;3.45;;;1.20;;
21671;SDS011;10997;52.242;8.168;2022-09-09T16:20:27;3.40;;;1.30;;
21671;SDS011;10997;52.242;8.168;2022-09-09T16:25:27;7.53;;;1.80;;
21671;SDS011;10997;52.242;8.168;2022-09-09T16:30:43;2.95;;;1.38;;
21671;SDS011;10997;52.242;8.168;2022-09-09T16:35:44;3.60;;;1.38;;
21671;SDS011;10997;52.242;8.168;2022-09-09T16:40:44;3.60;;;1.33;;
21671;SDS011;10997;52.242;8.168;2022-09-09T16:45:45;2.65;;;1.08;;
21671;SDS011;10997;52.242;8.168;2022-09-09T16:50:46;4.57;;;1.30;;
21671;SDS011;10997;52.242;8.168;2022-09-09T16:55:46;6.25;;;1.73;;
21671;SDS011;10997;52.242;8.168;2022-09-09T17:00:47;4.10;;;1.52;;
21671;SDS011;10997;52.242;8.168;2022-09-09T17:05:48;5.25;;;1.50;;
21671;SDS011;10997;52.242;8.168;2022-09-09T17:10:49;3.67;;;1.30;;
21671;SDS011;10997;52.242;8.168;2022-09-09T17:15:50;4.18;;;1.63;;
21671;SDS011;10997;52.242;8.168;2022-09-09T17:20:51;4.30;;;1.65;;
21671;SDS011;10997;52.242;8.168;2022-09-09T17:25:56;3.28;;;1.42;;
21671;SDS011;10997;52.242;8.168;2022-09-09T17:30:58;3.95;;;1.50;;
21671;SDS011;10997;52.242;8.168;2022-09-09T17:36:07;3.97;;;1.53;;
21671;SDS011;10997;52.242;8.168;2022-09-09T17:41:11;3.28;;;1.63;;
21671;SDS011;10997;52.242;8.168;2022-09-09T17:46:15;4.18;;;1.50;;
21671;SDS011;10997;52.242;8.168;2022-09-09T17:51:18;3.53;;;1.30;;
21671;SDS011;10997;52.242;8.168;2022-09-09T17:56:24;2.45;;;1.27;;
21671;SDS011;10997;52.242;8.168;2022-09-09T18:01:27;2.35;;;0.98;;
21671;SDS011;10997;52.242;8.168;2022-09-09T18:06:34;2.90;;;1.08;;
21671;SDS011;10997;52.242;8.168;2022-09-09T18:11:37;3.22;;;1.08;;
21671;SDS011;10997;52.242;8.168;2022-09-09T18:21:43;3.50;;;0.80;;
21671;SDS011;10997;52.242;8.168;2022-09-09T18:26:44;2.03;;;0.80;;
21671;SDS011;10997;52.242;8.168;2022-09-09T18:31:47;1.42;;;0.60;;
21671;SDS011;10997;52.242;8.168;2022-09-09T18:36:51;1.10;;;0.70;;
21671;SDS011;10997;52.242;8.168;2022-09-09T18:41:55;0.95;;;0.60;;
21671;SDS011;10997;52.242;8.168;2022-09-09T18:46:59;2.15;;;0.60;;
21671;SDS011;10997;52.242;8.168;2022-09-09T18:52:00;0.73;;;0.57;;
21671;SDS011;10997;52.242;8.168;2022-09-09T18:57:02;0.98;;;0.50;;
21671;SDS011;10997;52.242;8.168;2022-09-09T19:02:03;1.40;;;0.47;;
21671;SDS011;10997;52.242;8.168;2022-09-09T19:07:04;0.68;;;0.50;;
21671;SDS011;10997;52.242;8.168;2022-09-09T19:12:05;1.00;;;0.50;;
21671;SDS011;10997;52.242;8.168;2022-09-09T19:17:06;1.15;;;0.50;;
21671;SDS011;10997;52.242;8.168;2022-09-09T19:22:06;1.15;;;0.50;;
21671;SDS011;10997;52.242;8.168;2022-09-09T19:27:10;2.67;;;0.60;;
21671;SDS011;10997;52.242;8.168;2022-09-09T19:32:11;1.15;;;0.55;;
21671;SDS011;10997;52.242;8.168;2022-09-09T19:37:12;1.63;;;0.73;;
21671;SDS011;10997;52.242;8.168;2022-09-09T19:42:12;2.17;;;0.70;;
21671;SDS011;10997;52.242;8.168;2022-09-09T19:47:13;3.60;;;0.82;;
21671;SDS011;10997;52.242;8.168;2022-09-09T19:52:14;2.75;;;0.90;;
21671;SDS011;10997;52.242;8.168;2022-09-09T19:57:16;2.08;;;0.90;;
21671;SDS011;10997;52.242;8.168;2022-09-09T20:02:18;1.95;;;0.70;;
21671;SDS011;10997;52.242;8.168;2022-09-09T20:07:20;2.78;;;1.00;;
21671;SDS011;10997;52.242;8.168;2022-09-09T20:12:22;2.28;;;0.90;;
21671;SDS011;10997;52.242;8.168;2022-09-09T20:17:24;1.80;;;0.90;;
21671;SDS011;10997;52.242;8.168;2022-09-09T20:22:24;3.40;;;1.05;;
21671;SDS011;10997;52.242;8.168;2022-09-09T20:27:25;2.97;;;1.20;;
21671;SDS011;10997;52.242;8.168;2022-09-09T20:32:27;2.83;;;1.17;;
21671;SDS011;10997;52.242;8.168;2022-09-09T20:37:28;1.63;;;1.10;;
21671;SDS011;10997;52.242;8.168;2022-09-09T20:42:30;3.08;;;1.27;;
21671;SDS011;10997;52.242;8.168;2022-09-09T20:47:31;3.33;;;1.50;;
21671;SDS011;10997;52.242;8.168;2022-09-09T20:52:32;3.83;;;1.67;;
21671;SDS011;10997;52.242;8.168;2022-09-09T20:57:32;2.90;;;1.65;;
21671;SDS011;10997;52.242;8.168;2022-09-09T21:02:35;4.28;;;2.10;;
21671;SDS011;10997;52.242;8.168;2022-09-09T21:07:35;3.22;;;2.60;;
21671;SDS011;10997;52.242;8.168;2022-09-09T21:12:36;3.00;;;2.60;;
21671;SDS011;10997;52.242;8.168;2022-09-09T21:17:38;3.45;;;2.50;;
21671;SDS011;10997;52.242;8.168;2022-09-09T21:22:39;4.38;;;2.33;;
21671;SDS011;10997;52.242;8.168;2022-09-09T21:27:39;4.13;;;2.20;;
21671;SDS011;10997;52.242;8.168;2022-09-09T21:32:40;2.60;;;1.83;;
21671;SDS011;10997;52.242;8.168;2022-09-09T21:37:41;4.10;;;1.77;;
21671;SDS011;10997;52.242;8.168;2022-09-09T21:42:41;2.20;;;1.70;;
21671;SDS011;10997;52.242;8.168;2022-09-09T21:47:43;2.83;;;2.03;;
21671;SDS011;10997;52.242;8.168;2022-09-09T21:52:46;5.10;;;2.17;;
21671;SDS011;10997;52.242;8.168;2022-09-09T21:57:47;4.35;;;2.40;;
21671;SDS011;10997;52.242;8.168;2022-09-09T22:02:49;5.70;;;2.53;;
21671;SDS011;10997;52.242;8.168;2022-09-09T22:07:50;4.93;;;2.47;;
21671;SDS011;10997;52.242;8.168;2022-09-09T22:12:52;5.55;;;3.00;;
21671;SDS011;10997;52.242;8.168;2022-09-09T22:17:53;3.28;;;2.97;;
21671;SDS011;10997;52.242;8.168;2022-09-09T22:22:54;5.13;;;3.47;;
21671;SDS011;10997;52.242;8.168;2022-09-09T22:27:55;5.40;;;3.45;;
21671;SDS011;10997;52.242;8.168;2022-09-09T22:32:55;5.90;;;3.75;;
21671;SDS011;10997;52.242;8.168;2022-09-09T22:37:58;7.72;;;3.60;;
21671;SDS011;10997;52.242;8.168;2022-09-09T22:42:58;6.55;;;3.35;;
21671;SDS011;10997;52.242;8.168;2022-09-09T22:47:59;5.88;;;3.72;;
21671;SDS011;10997;52.242;8.168;2022-09-09T22:53:00;8.38;;;4.47;;
21671;SDS011;10997;52.242;8.168;2022-09-09T22:58:03;7.93;;;4.70;;
21671;SDS011;10997;52.242;8.168;2022-09-09T23:03:04;6.63;;;4.20;;
21671;SDS011;10997;52.242;8.168;2022-09-09T23:08:05;5.93;;;4.13;;
21671;SDS011;10997;52.242;8.168;2022-09-09T23:13:06;7.05;;;4.63;;
21671;SDS011;10997;52.242;8.168;2022-09-09T23:18:08;6.45;;;4.32;;
21671;SDS011;10997;52.242;8.168;2022-09-09T23:23:12;10.13;;;5.15;;
21671;SDS011;10997;52.242;8.168;2022-09-09T23:28:13;7.35;;;4.72;;
21671;SDS011;10997;52.242;8.168;2022-09-09T23:33:13;8.75;;;5.53;;
21671;SDS011;10997;52.242;8.168;2022-09-09T23:38:14;14.20;;;7.00;;
21671;SDS011;10997;52.242;8.168;2022-09-09T23:43:15;9.27;;;7.10;;
21671;SDS011;10997;52.242;8.168;2022-09-09T23:48:16;11.52;;;7.10;;
21671;SDS011;10997;52.242;8.168;2022-09-09T23:53:17;11.57;;;7.57;;
21671;SDS011;10997;52.242;8.168;2022-09-09T23:58:18;9.95;;;6.90;;
